Latest Weather Observations for Narrabri

IDN60801

Issued at 8:33 am EDT Saturday 14 December 2019 (issued every 10 minutes, with the page automatically refreshed every 10 minutes)

About weather observations | Map of weather stations | Latest weather observations for NSW | Other Formats
Station Details ID: 054038 Name: NARRABRI AIRPORT AWS Lat: -30.32 Lon: 149.83 Height: 229.02 m
Data from the previous 72 hours. | See also: Recent months at Narrabri
Date/Time
EDT
Temp
°C
App
Temp
°C
Dew
Point
°C
Rel
Hum
%
Delta-T
°C
Wind Press
QNH
hPa
Press
MSL
hPa
Rain since
9am
mm
Dir  Spd
km/h
Gust
km/h
Spd
kts
Gust
kts
14/08:30am 25.5 23.9 8.1 33 9.4 E 6 9 3 5 1011.4 1010.1 0.0
14/08:00am 23.1 20.4 7.2 36 8.3 SSE 11 15 6 8 1011.3 1010.0 0.0
14/07:30am 21.5 17.4 2.2 28 9.1 S 13 17 7 9 1011.2 1009.9 0.0
14/07:00am 19.0 16.1 -3.8 21 9.4 N 2 7 1 4 1010.9 1009.6 0.0
14/06:30am 17.3 14.4 -4.6 22 8.7 NNE 2 7 1 4 1010.4 1009.1 0.0
14/06:00am 16.3 13.3 -4.8 23 8.3 SSW 2 6 1 3 1010.3 1009.0 0.0
14/05:30am 17.7 13.8 -4.9 21 8.9 SSW 7 9 4 5 1010.2 1008.9 0.0
14/05:00am 17.7 14.3 -4.9 21 9.0 SE 4 6 2 3 1010.1 1008.8 0.0
14/04:30am 18.0 14.0 -5.9 19 9.3 S 7 7 4 4 1010.0 1008.7 0.0
14/04:00am 18.8 16.0 -6.7 17 9.9 CALM 0 0 0 0 1009.9 1008.6 0.0
14/03:30am 19.5 16.7 -7.0 16 10.2 CALM 0 0 0 0 1009.9 1008.6 0.0
14/03:00am 20.1 16.9 -7.3 15 10.6 S 2 6 1 3 1010.0 1008.7 0.0
14/02:30am 20.9 16.7 -7.6 14 11.0 S 7 11 4 6 1010.1 1008.8 0.0
14/02:00am 22.0 17.0 -8.7 12 11.8 S 11 13 6 7 1010.3 1009.0 0.0
14/01:30am 22.9 17.1 -9.1 11 12.3 S 15 19 8 10 1010.5 1009.2 0.0
14/01:00am 23.2 17.9 -7.7 12 12.3 SSW 13 17 7 9 1010.6 1009.3 0.0
14/12:30am 23.6 18.3 -7.4 12 12.4 SSW 13 17 7 9 1010.7 1009.4 0.0
14/12:00am 23.7 18.8 -7.4 12 12.5 SSW 11 15 6 8 1010.7 1009.4 0.0
 
Date/Time
EDT
Temp
°C
App
Temp
°C
Dew
Point
°C
Rel
Hum
%
Delta-T
°C
Wind Press
QNH
hPa
Press
MSL
hPa
Rain since
9am
mm
Dir  Spd
km/h
Gust
km/h
Spd
kts
Gust
kts
13/11:30pm 23.9 19.0 -7.2 12 12.5 SSW 11 15 6 8 1010.6 1009.3 0.0
13/11:00pm 24.8 20.3 -6.5 12 12.9 S 9 13 5 7 1010.7 1009.4 0.0
13/10:30pm 26.2 21.0 -6.5 11 13.6 SSW 13 19 7 10 1010.4 1009.1 0.0
13/10:00pm 27.6 21.0 -6.7 10 14.4 SW 20 24 11 13 1010.2 1008.9 0.0
13/09:30pm 28.0 21.5 -6.4 10 14.6 SW 20 28 11 15 1009.9 1008.6 0.0
13/09:00pm 28.6 22.3 -6.0 10 14.9 SW 19 24 10 13 1009.5 1008.2 0.0
13/08:30pm 29.3 23.0 -4.2 11 14.9 WSW 20 26 11 14 1009.1 1007.8 0.0
13/08:00pm 30.3 23.8 -2.2 12 15.2 WSW 22 30 12 16 1008.7 1007.4 0.0
13/07:30pm 31.2 24.1 -1.5 12 15.5 WSW 26 35 14 19 1008.2 1006.9 0.0
13/07:00pm 32.3 24.6 -3.2 10 16.5 WSW 28 33 15 18 1007.8 1006.4 0.0
13/06:30pm 33.6 25.8 -3.6 9 17.3 WSW 28 37 15 20 1007.5 1006.1 0.0
13/06:01pm 34.4 26.7 -3.0 9 17.7 W 28 46 15 25 1007.0 1005.7 0.0
13/06:00pm 34.2 26.9 -3.2 9 17.7 W 26 37 14 20 1007.0 1005.7 0.0
13/05:30pm 34.5 25.7 -6.3 7 18.3 WSW 32 41 17 22 1006.8 1005.5 0.0
13/05:00pm 35.0 27.0 -2.6 9 18.0 WSW 30 41 16 22 1006.9 1005.6 0.0
13/04:30pm 35.3 29.2 0.4 11 17.6 WSW 22 35 12 19 1007.2 1005.8 0.0
13/04:00pm 35.0 28.8 4.5 15 16.4 WSW 26 39 14 21 1007.6 1006.2 0.0
13/03:30pm 35.2 31.2 6.5 17 15.9 W 17 35 9 19 1008.0 1006.7 0.0
13/03:00pm 34.3 29.7 8.1 20 14.8 SW 22 37 12 20 1008.3 1007.0 0.0
13/02:30pm 34.1 30.0 6.4 18 15.2 W 17 28 9 15 1008.5 1007.2 0.0
13/02:00pm 33.7 30.3 6.1 18 15.1 WNW 13 35 7 19 1008.9 1007.6 0.0
13/01:30pm 33.4 30.8 5.9 18 14.9 SW 9 26 5 14 1009.4 1008.1 0.0
13/01:00pm 32.0 29.4 10.7 27 12.4 WSW 15 30 8 16 1009.9 1008.6 0.0
13/12:30pm 31.5 29.8 13.7 33 10.8 SSW 15 26 8 14 1010.4 1009.1 0.0
13/12:00pm 30.5 29.4 14.2 37 10.0 WSW 13 24 7 13 1010.7 1009.4 0.0
13/11:30am 30.1 29.7 14.2 38 9.7 WSW 9 22 5 12 1011.1 1009.8 0.0
13/11:00am 28.7 27.5 14.1 40 8.9 SSW 13 22 7 12 1011.5 1010.2 0.0
13/10:30am 27.6 25.2 13.9 43 8.2 S 19 28 10 15 1011.7 1010.3 0.0
13/10:00am 26.5 24.4 13.6 45 7.7 SSE 17 24 9 13 1011.5 1010.2 0.0
13/09:30am 24.3 22.5 13.2 50 6.5 SE 15 22 8 12 1011.5 1010.2 0.0
13/09:00am 23.3 22.4 12.6 51 6.2 SSE 9 17 5 9 1011.7 1010.3 0.0
13/08:30am 22.7 19.0 12.6 53 5.8 SSE 24 33 13 18 1011.7 1010.3 0.0
13/08:00am 22.3 18.1 12.5 53 5.6 SSE 26 35 14 19 1011.5 1010.2 0.0
13/07:30am 21.3 17.4 12.2 56 5.2 SSE 24 33 13 18 1011.2 1009.9 0.0
13/07:00am 20.8 16.5 12.2 58 4.9 SSE 26 35 14 19 1011.0 1009.7 0.0
13/06:30am 20.3 16.0 12.0 59 4.7 SSE 26 37 14 20 1010.8 1009.5 0.0
13/06:00am 20.1 16.9 11.8 59 4.7 SSE 20 28 11 15 1010.7 1009.4 0.0
13/05:30am 20.5 17.4 11.7 57 4.9 SSE 19 30 10 16 1010.5 1009.2 0.0
13/05:00am 21.1 17.9 12.0 56 5.2 SSE 20 30 11 16 1010.5 1009.2 0.0
13/04:30am 21.5 17.9 11.8 54 5.5 SSE 22 30 12 16 1010.3 1009.0 0.0
13/04:00am 22.1 18.8 11.5 51 6.0 SSE 20 28 11 15 1010.3 1009.0 0.0
13/03:30am 22.6 18.2 11.7 50 6.2 SSE 26 35 14 19 1010.2 1008.9 0.0
13/03:00am 23.7 18.4 11.1 45 7.1 SSE 30 37 16 20 1010.0 1008.7 0.0
13/02:30am 24.8 20.2 11.0 42 7.8 SSE 26 37 14 20 1010.1 1008.8 0.0
13/02:00am 25.1 20.1 -0.9 18 11.9 SSW 15 17 8 9 1010.1 1008.8 0.0
13/01:30am 25.9 21.2 -1.8 16 12.6 S 13 15 7 8 1010.5 1009.2 0.0
13/01:00am 26.8 20.7 -3.9 13 13.5 SW 19 24 10 13 1010.6 1009.3 0.0
13/12:30am 27.0 20.8 -4.8 12 13.8 SSW 19 28 10 15 1010.8 1009.5 0.0
13/12:00am 28.0 21.7 -4.0 12 14.2 SW 20 26 11 14 1011.0 1009.7 0.0
 
Date/Time
EDT
Temp
°C
App
Temp
°C
Dew
Point
°C
Rel
Hum
%
Delta-T
°C
Wind Press
QNH
hPa
Press
MSL
hPa
Rain since
9am
mm
Dir  Spd
km/h
Gust
km/h
Spd
kts
Gust
kts
12/11:30pm 27.6 22.6 -4.3 12 14.0 SSW 13 15 7 8 1011.0 1009.7 0.0
12/11:00pm 28.9 23.5 -4.5 11 14.8 SSW 15 17 8 9 1010.6 1009.3 0.0
12/10:30pm 29.3 24.4 -3.0 12 14.7 SSW 13 15 7 8 1010.4 1009.1 0.0
12/10:00pm 29.8 24.6 -2.6 12 14.9 SW 15 17 8 9 1010.1 1008.8 0.0
12/09:30pm 30.8 24.8 -3.0 11 15.6 SW 19 22 10 12 1009.9 1008.6 0.0
12/09:00pm 31.1 24.4 -4.1 10 16.0 SW 22 30 12 16 1009.5 1008.2 0.0
12/08:30pm 31.8 24.6 -4.9 9 16.5 WSW 24 32 13 17 1008.8 1007.5 0.0
12/08:00pm 32.7 24.8 -4.3 9 17.0 WSW 28 37 15 20 1008.0 1006.7 0.0
12/07:30pm 34.1 26.0 -3.2 9 17.6 WSW 30 39 16 21 1007.5 1006.1 0.0
12/07:00pm 34.4 26.1 -4.6 8 18.0 WSW 30 39 16 21 1007.0 1005.7 0.0
12/06:30pm 36.0 28.1 -5.2 7 19.0 WSW 28 41 15 22 1006.5 1005.2 0.0
12/06:00pm 37.1 30.0 -4.4 7 19.6 WSW 24 35 13 19 1006.1 1004.8 0.0
12/05:30pm 37.5 29.7 -4.1 7 19.8 WSW 28 41 15 22 1005.8 1004.5 0.0
12/05:00pm 37.8 30.0 -3.9 7 20.0 WSW 28 39 15 21 1005.9 1004.6 0.0
12/04:30pm 38.5 32.1 -1.6 8 19.9 W 22 32 12 17 1006.1 1004.8 0.0
12/04:00pm 37.1 31.9 0.4 10 18.7 WNW 17 28 9 15 1006.3 1005.0 0.0
12/03:30pm 38.1 32.9 2.5 11 18.8 W 19 30 10 16 1006.6 1005.3 0.0
12/03:00pm 37.5 32.0 2.1 11 18.6 W 20 28 11 15 1007.0 1005.7 0.0
12/02:30pm 36.9 32.3 -1.1 9 18.8 SW 13 24 7 13 1007.5 1006.1 0.0
12/02:00pm 36.4 31.8 3.6 13 17.5 W 17 28 9 15 1007.9 1006.5 0.0
12/01:30pm 37.1 33.3 4.1 13 17.8 WSW 13 30 7 16 1008.4 1007.1 0.0
12/01:00pm 35.6 31.1 6.8 17 16.1 WSW 20 28 11 15 1009.1 1007.8 0.0
12/12:30pm 34.2 31.0 10.1 23 14.0 NNW 17 28 9 15 1009.3 1008.0 0.0
12/12:00pm 33.8 31.1 10.4 24 13.7 WNW 15 32 8 17 1009.6 1008.3 0.0
12/11:30am 32.0 28.8 11.2 28 12.2 N 19 30 10 16 1010.1 1008.8 0.0
12/11:00am 31.8 28.5 11.6 29 11.9 N 20 33 11 18 1010.3 1009.0 0.0
12/10:30am 30.6 27.3 11.5 30 11.2 NNW 20 33 11 18 1010.3 1009.0 0.0
12/10:00am 30.0 25.9 11.5 32 10.8 NNW 24 39 13 21 1010.5 1009.2 0.0
12/09:30am 29.4 24.6 11.5 33 10.4 N 28 39 15 21 1010.7 1009.4 0.0
12/09:00am 28.9 23.7 11.5 34 10.1 N 30 41 16 22 1011.0 1009.7 0.0
12/08:30am 28.3 22.8 11.8 36 9.6 N 32 43 17 23 1011.1 1009.8 0.0
12/08:00am 27.1 22.4 12.0 39 8.8 N 28 39 15 21 1011.2 1009.9 0.0
12/07:30am 26.6 22.8 12.3 41 8.3 N 24 30 13 16 1011.3 1010.0 0.0
12/07:00am 26.0 22.0 11.7 41 8.2 N 24 32 13 17 1011.2 1009.9 0.0
12/06:30am 25.3 22.1 11.1 41 8.1 N 19 22 10 12 1010.8 1009.5 0.0
12/06:00am 24.9 21.3 10.4 40 8.1 N 20 26 11 14 1010.5 1009.2 0.0
12/05:30am 25.2 21.2 10.3 39 8.4 N 22 30 12 16 1010.0 1008.7 0.0
12/05:00am 25.6 21.0 9.8 37 8.8 N 24 32 13 17 1009.9 1008.6 0.0
12/04:30am 25.9 21.7 9.7 36 9.0 N 22 30 12 16 1009.6 1008.3 0.0
12/04:00am 26.6 20.4 9.5 34 9.5 N 32 43 17 23 1009.7 1008.4 0.0
12/03:30am 27.0 23.3 9.4 33 9.8 NNE 19 30 10 16 1009.9 1008.6 0.0
12/03:00am 24.2 22.0 7.8 35 8.8 NNW 9 13 5 7 1010.0 1008.7 0.0
12/02:30am 25.0 22.1 8.1 34 9.1 NNW 13 20 7 11 1010.0 1008.7 0.0
12/02:00am 26.5 23.1 7.5 30 10.2 NNW 15 19 8 10 1009.8 1008.5 0.0
12/01:30am 28.0 24.9 7.3 27 11.2 N 13 20 7 11 1009.9 1008.6 0.0
12/01:00am 26.3 24.1 7.8 31 10.0 W 9 13 5 7 1010.1 1008.8 0.0
12/12:30am 27.3 23.8 7.2 28 10.8 NNE 15 19 8 10 1010.1 1008.8 0.0
12/12:00am 28.7 25.1 6.7 25 11.8 N 15 20 8 11 1010.2 1008.9 0.0
 
Date/Time
EDT
Temp
°C
App
Temp
°C
Dew
Point
°C
Rel
Hum
%
Delta-T
°C
Wind Press
QNH
hPa
Press
MSL
hPa
Rain since
9am
mm
Dir  Spd
km/h
Gust
km/h
Spd
kts
Gust
kts
11/11:30pm 29.2 25.6 -2.0 13 14.5 NNE 7 15 4 8 1010.0 1008.7 0.0
11/11:00pm 29.4 24.9 -2.9 12 14.8 ENE 11 17 6 9 1009.0 1007.7 0.0
11/10:30pm 32.9 26.9 -2.7 10 16.7 SSW 19 26 10 14 1008.5 1007.2 0.0
11/10:00pm 33.0 28.4 -1.4 11 16.6 SSW 13 20 7 11 1008.3 1007.0 0.0
11/09:30pm 34.0 28.0 -1.9 10 17.2 SW 20 26 11 14 1008.1 1006.8 0.0
11/09:00pm 34.9 28.9 -1.2 10 17.7 SW 20 24 11 13 1008.0 1006.7 0.0
11/08:30pm 35.6 30.1 0.6 11 17.7 SW 19 22 10 12 1007.8 1006.4 0.0
11/08:00pm 37.0 29.8 0.4 10 18.6 SW 28 39 15 21 1007.2 1005.8 0.0
11/07:30pm 37.9 30.2 -0.4 9 19.3 WSW 30 41 16 22 1006.6 1005.3 0.0
11/07:00pm 38.9 31.0 -1.3 8 20.2 W 30 41 16 22 1005.9 1004.6 0.0
11/06:30pm 40.3 31.0 -2.1 7 21.2 W 37 50 20 27 1005.3 1004.0 0.0
11/06:00pm 41.7 34.1 0.8 8 21.5 W 30 43 16 23 1004.9 1003.6 0.0
11/05:38pm 42.1 34.7 -0.8 7 22.1 W 28 50 15 27 1004.8 1003.5 0.0
11/05:30pm 42.0 35.3 -0.9 7 22.0 W 24 35 13 19 1004.9 1003.6 0.0
11/05:20pm 42.0 34.8 1.0 8 21.6 W 28 41 15 22 1004.8 1003.5 0.0
11/05:00pm 40.5 35.3 -0.1 8 21.0 NW 17 28 9 15 1005.1 1003.8 0.0
11/04:30pm 40.3 34.2 2.8 10 20.1 NNW 24 33 13 18 1005.1 1003.8 0.0
11/04:00pm 40.0 34.9 4.0 11 19.7 WNW 20 35 11 19 1005.6 1004.3 0.0
11/03:30pm 40.1 34.0 2.7 10 20.0 WNW 24 43 13 23 1006.3 1005.0 0.0
11/03:00pm 39.8 34.2 7.3 14 18.6 WNW 26 39 14 21 1006.9 1005.6 0.0
11/02:30pm 40.5 34.6 5.6 12 19.6 NW 26 39 14 21 1007.6 1006.2 0.0
11/02:00pm 41.5 35.4 6.4 12 20.0 WNW 28 46 15 25 1008.3 1007.0 0.0
11/01:37pm 40.2 33.8 5.4 12 19.4 NNW 28 46 15 25 1008.7 1007.4 0.0
11/01:30pm 40.1 34.7 6.4 13 19.1 NNW 24 37 13 20 1008.8 1007.5 0.0
11/01:08pm 39.9 34.0 7.4 14 18.6 NNW 28 46 15 25 1009.2 1007.9 0.0
11/01:00pm 40.1 33.4 7.5 14 18.8 NNW 32 48 17 26 1009.4 1008.1 0.0
11/12:54pm 40.0 34.2 9.4 16 18.1 N 30 48 16 26 1009.5 1008.2 0.0
11/12:30pm 39.0 32.4 7.7 15 18.0 NNW 32 48 17 26 1009.9 1008.6 0.0
11/12:25pm 39.4 33.8 8.9 16 17.8 NNW 28 48 15 26 1010.0 1008.7 0.0
11/12:00pm 39.2 32.6 7.8 15 18.1 NNW 32 44 17 24 1010.2 1008.9 0.0
11/11:30am 38.2 31.7 8.0 16 17.3 NNW 32 52 17 28 1010.4 1009.1 0.0
11/11:00am 37.9 30.7 7.7 16 17.3 N 35 50 19 27 1010.7 1009.4 0.0
11/10:30am 37.2 29.7 8.1 17 16.7 N 37 48 20 26 1010.6 1009.3 0.0
11/10:13am 36.6 28.4 6.7 16 16.7 N 39 57 21 31 1010.5 1009.2 0.0
11/10:00am 36.6 28.3 7.6 17 16.5 N 41 56 22 30 1010.5 1009.2 0.0
11/09:30am 36.0 27.8 8.0 18 15.9 N 41 52 22 28 1010.5 1009.2 0.0
11/09:00am 35.3 27.1 8.2 19 15.4 NNE 41 54 22 29 1010.8 1009.5 0.0

Other formats

Comma delimited format used in spreadsheet applications
http://www.bom.gov.au/fwo/IDN60801/IDN60801.95734.axf

JavaScript Object Notation format (JSON) in row-major order
http://www.bom.gov.au/fwo/IDN60801/IDN60801.95734.json

Data quality

Most of these data are generated automatically and are frequently updated. Quality checks on data are not normally performed. It is possible for incorrect values to appear. Refer to information at About Latest Weather Observations and please check the disclaimer before using these data.